ELIMINATOR 2019 - KLASYFIKACJA KOŃCOWA PEŁNA WG MIEJSC

Wydarzenie:
Organizator:
Fundacja Bieg Rzeźnika
Data:
2019-06-08
Miejsce:
Ustroń
Dystans:
1.7 km
Zgłoszonych:
204
Wystartowało:
176
Nie ukończyło:
0
Ukończyło:
176
Na trasie:
0
Pełne wyniki :
Wyniki uproszczone:
Wyniki nieoficjalne !!!
Klasyfikacje w punktach pomiarowych: 0.9km | Meta
Klasyfikacje wg kategorii: Wszyscy | K Open | M Open | K20 | M20 | K30 | M30 | K40 | M40 | K50 | M50 | K60 | M60

MscZawodnikNumerKlubMiejscowośćKrajKategoriaMkatK/M0.9kmCzas
netto
1.7km
Czas
brutto
1.7km
Różn.Tempo
min/km
Tempo
km/h
       
1LEPIARZ Sylwester 2002LKB RUDNIKWRONÓWM201M 100:15:59.8000:15:59.80 9:246.4
2MISIAK Bartosz 2147ALPIN SPORT HOKA ONE ONE TEAMCESKY TESINM301M 200:16:37.5500:16:37.55+00:00:379:466.1
3BIERNAWSKI Piotr 2004ATTIQ TEAM/SALMINGNOWY TARGM401M 300:16:57.7000:16:57.70+00:00:579:586
4JAŚTAL Piotr 2126LKB RUDNIK/AZS UJK KIELCEDOMASZOWICEM202M 400:17:09.9000:17:09.90+00:01:1010:055.9
5SKUPIEŃ Tomasz 2003MUAY RUNNING TEAMSKAWINKIM302M 500:17:16.0500:17:16.05+00:01:1610:095.9
6GAWLAS Dominik 2007UZDROWISKOWY TEAMCIESZYNM303M 600:17:19.4500:17:19.45+00:01:1910:115.9
7JAWORSKI Zbigniew 2146...KLUSZKOWCEM402M 700:17:39.7500:17:39.75+00:01:3910:225.8
8BROJ Marcel 2142BROJ TEAM ŹLINICEŹLINICEM203M 800:17:43.9500:17:43.95+00:01:4410:255.8
9KOZIOŁ Kamil 2136G.O.A.T. TEAM / MŁYN TRAIL MICHAŁOWICEMICHAŁOWICEM204M 900:18:24.2500:18:24.25+00:02:2410:495.5
10HUZIOR Piotr 2162PTTIQNOWY TARGM403M 1000:18:45.6500:18:45.65+00:02:4511:015.4
11KAPAON Łazarz 2020CAZZO CLUB RUNNING TEAM/RUNTATA.PLWARSZAWAM205M 1100:18:56.0500:18:56.05+00:02:5611:085.4
12KUBACZKA Grzegorz 2091WWW.AG-ARCHITEKCI.PLSKOCZÓWM304M 1200:19:14.7500:19:14.75+00:03:1411:185.3
13JANUSZYK Iwona 1002KS KANDAHAR/ATTIQ TEAMOŚWIĘCIMK201K 100:08:5900:19:27.7000:19:27.70+00:03:2711:265.2
14FABIAN Marcel 2135SOCIOS SILESIAPYSKOWICEM206M 1300:19:28.5500:19:28.55+00:03:2811:275.2
15BEDNARZ Adam 2016KS ŻEGLINA SIERADZZŁOCZEWM207M 1400:19:44.6000:19:44.60+00:03:4411:365.2
16BUCZYŃSKI Adam 2024NON STOP TRAILKRAKÓWM404M 1500:19:49.3000:19:49.30+00:03:4911:395.1
17SOKOŁOWSKI Marek 2006ALPIN SPORT HOKA ONE ONE TEAMMYSŁOWICE-WESOŁAM501M 1600:20:06.8500:20:06.85+00:04:0711:495.1
18DYCZEK Mariusz 2022DYCZUŚ TEAMZDZIESZOWICEM405M 1700:20:09.1500:20:09.15+00:04:0911:515.1
19URBAŃCZYK Karol 2044GLIWICEM208M 1800:20:15.0500:20:15.05+00:04:1511:545
20CZOK Maria 1004ALPIN SPORT HOKA ONE ONE TEAM/ UBSSTRZELCE OPOLSKIEK301K 200:09:2600:20:31.1500:20:31.15+00:04:3112:045
21ZAKOWICZ Paweł 2144PIECHOTĄ PO SCHODACH - ŁÓDŹHALINÓWM305M 1900:20:38.8000:20:38.80+00:04:3912:084.9
22BADURA Adam 2153FORMA WODZISŁAW ŚLĄSKIRYBNIKM406M 2000:20:43.4000:20:43.40+00:04:4312:114.9
23FLISIŃSKI Łukasz 2071SOSNOWIECM306M 2100:20:47.0500:20:47.05+00:04:4712:134.9
24ZATORSKA Izabela 1007ALPIN SPORT HOKA ONE ONETEAMWROCANKAK501K 300:09:3100:20:51.2500:20:51.25+00:04:5112:154.9
25MAGIERA Janusz 2005FORMA WODZISŁAW ŚLĄSKIWODZISŁAW ŚLĄSKIM502M 2200:20:53.8000:20:53.80+00:04:5412:174.9
26MALINOWSKI Mateusz 2012MYSŁOWICEM307M 2300:21:00.5000:21:00.50+00:05:0012:214.9
27JAKIEŁA Michał 2143KRAKÓWM308M 2400:21:02.6500:21:02.65+00:05:0212:224.8
28KURYŁO Jakub 2092AUGUSTÓWM209M 2500:21:13.5000:21:13.50+00:05:1312:284.8
29KORCZ Daniel 2161JAWORZNO RUNNERSJAWORZNOM407M 2600:21:16.6000:21:16.60+00:05:1612:304.8
30TOKAREWICZ Damian 2041ZEBRYZEBRZYDOWICEM309M 2700:21:19.6500:21:19.65+00:05:1912:324.8
31TARGOSZ Michał Mateusz 2123FISI COMPRESSPORT NB TEAMKRAKÓWM3010M 2800:21:31.4000:21:31.40+00:05:3112:394.7
32SNARSKI Dariusz 2060WATAHA-ŁĄCZY NAS BIEGANIEKATOWICEM408M 2900:21:32.3500:21:32.35+00:05:3212:404.7
33SKALSKA Anna 1003CARBON OCR RACING TEAM FESTIWAL BIEGOWY KRYNICA ZDRÓJBYTOMK302K 400:09:5100:21:56.3000:21:56.30+00:05:5612:544.7
34SZAFRANEK Paweł 2069BIEGIEM PRZEZ CHYBIEUSTROŃM2010M 3000:22:09.7000:22:09.70+00:06:0913:014.6
35KUŚMIERSKI Michał 2038NO I?BIELSKO-BIAŁAM409M 3100:10:4400:22:29.2000:22:29.20+00:06:2913:134.5
36GRUND Marek 2011MAFIA TEAM LUBLINIECSTRZEBIŃM3011M 3200:22:35.0000:22:35.00+00:06:3513:174.5
37WIECZOREK Damian 2131UZDROWISKOKATOWICEM4010M 3300:10:2000:22:52.5000:22:52.50+00:06:5213:274.5
38BOLECHOWSKA Dominika 1039ALPIN SPORT HOKA ONE ONETEAMK401K 500:11:0600:22:55.6500:22:55.65+00:06:5513:284.5
39FIJAK Jan 2054SIENNAM4011M 3400:10:2200:23:34.8500:23:34.85+00:07:3513:514.3
40TOPOROWICZ Agata 1024BIELSKO-BIAŁAK402K 600:10:5300:23:41.2000:23:41.20+00:07:4113:554.3
41CHAWONIOK Anna 1035K202K 700:11:4100:25:51.2500:25:51.25+00:09:5115:123.9
42SZKODA Dariusz 2164SOCIOS SILESIARUDA ŚLĄSKAM3012M 3500:12:0200:26:19.1000:26:19.10+00:10:1915:283.9
43BRÓG Wojciech 2009OLKUSZM4012M 3600:12:0200:26:24.4000:26:24.40+00:10:2415:313.9
44LANGE Beata 1005BIŁGORAJ BIEGABIŁGORAJK403K 800:13:1000:28:41.1000:28:41.10+00:12:4116:523.6
45KONDRATIUK Ira 1019BIEGAM ŻEBY ŻREĆ WIĘCEJ CIASTKÓWBIELSKO-BIAŁAK203K 900:13:1600:28:41.1000:28:41.10+00:12:4116:523.6
46OŚLIZŁO Tomasz 2090HUSARIA RACE TEAMGORZYCEM3013M 3700:08:3500:17:55.6500:17:55.65+00:01:5510:325.7
47OPOLONY Ireneusz 2165SOCIOS SILESIAŁAŃCEM3014M 3800:09:3000:20:46.6500:20:46.65+00:04:4612:124.9
48URBAN Mirosław 2021ITMBW KRAKÓWKRAKÓWM3015M 3900:10:1200:20:51.7500:20:51.75+00:04:5112:154.9
49MARTYNEK Jakub 2102SKI MOSTYMOSTY U JABLUNKOVAM2011M 4000:09:5700:21:08.0000:21:08.00+00:05:0812:254.8
50GARCORZ Dawid 2014MAFIA TEAM LUBLINIECDZIELNAM2012M 4100:09:4300:21:22.7000:21:22.70+00:05:2212:344.8
51HECZKO Adam 2128UZDROWISKOWY TEAMPOGWIZDÓWM3016M 4200:09:4600:21:27.9000:21:27.90+00:05:2812:374.8
52PILSNIAK Krzysztof 2083LIBERTÓWM4013M 4300:09:4400:21:30.7000:21:30.70+00:05:3012:384.7
53BUKOWSKI Marek 2081BYTOMM4014M 4400:09:5100:21:41.1000:21:41.10+00:05:4112:454.7
54WASZTYL Tomasz 2085BIELSKO - BIAŁAM503M 4500:09:5500:22:11.6000:22:11.60+00:06:1113:024.6
55OSETEK Paweł 2163RADLINIOKI W BIEGUPSZÓWM3017M 4600:10:1100:22:15.0500:22:15.05+00:06:1513:054.6
56SZEWCZYK Damian 2080JEJKOWICEM4015M 4700:10:1600:22:17.9500:22:17.95+00:06:1813:064.6
57OCHMAN Paweł 2111FUTURE PROCESSING RUNNING TEAMGLIWICEM3018M 4800:10:4400:22:21.4500:22:21.45+00:06:2113:084.6
58URBAN Wiktor 2082NIGHT RUNNERS ZABRZE / ZPBZABRZEM3019M 4900:10:0000:22:26.2000:22:26.20+00:06:2613:114.5
59JAKUBCZYK Dariusz 2094CKBABCIE/WOŹNIAKRUNNINGTEAMPIEKOSZÓWM4016M 5000:10:2000:22:35.2000:22:35.20+00:06:3513:174.5
60KROTLA Piotr 2121TRIATHLON TRAINING CENTERCZĘSTOCHOWAM3020M 5100:10:2500:22:55.4000:22:55.40+00:06:5513:284.5
61MIZERA Krzysztof 2117KRAKÓWM3021M 5200:10:2600:22:58.9500:22:58.95+00:06:5913:304.4
62CUDZIŁO Łukasz 2086X-MAN TEAMKIELCEM3022M 5300:10:2800:23:16.7500:23:16.75+00:07:1613:414.4
63JARCZOK Zdzichu 2019VIKING TRAINING CENTERŁAKAM3023M 5400:10:2400:23:33.5500:23:33.55+00:07:3313:514.3
64DENICKI Przemysław 2113KOLEJ LINOWA CZANTORIAKNURÓWM2013M 5500:10:4000:23:40.0500:23:40.05+00:07:4013:554.3
65ŁUKOSZ Tomasz 2109XXXUSTROŃM3024M 5600:10:4900:23:55.7000:23:55.70+00:07:5514:044.3
66GRUSZKA Grzegorz 2049ENDURANCE TEAMSIEMIANOWICE ŚLĄSKIEM4017M 5700:10:3800:24:12.0000:24:12.00+00:08:1214:144.2
67RAKSZAWA Krzysztof 2158RYBNIKM4018M 5800:11:0700:24:21.3000:24:21.30+00:08:2114:194.2
68ZABEL Robert 2148ZABEL.PLPOZNAŃM4019M 5900:11:0100:25:11.4500:25:11.45+00:09:1114:484.1
69WOJNO Arkadiusz 2018DROGA DO ULTRAŁÓDŹM3025M 6000:11:4500:25:16.8500:25:16.85+00:09:1714:514
70MROWIEC Kacper 2098ŻYWIECM2014M 6100:10:4100:26:00.6000:26:00.60+00:10:0015:173.9
71GAMZA Mariusz 2079PĘDZĄCE ŻÓŁWIE IMICZERWIONKA LESZCZYNYM3026M 6200:11:1100:26:00.6500:26:00.65+00:10:0015:173.9
72MARKIEWICZ Karol 2096BIEGAM ŻEBY ŻREĆ WIĘCEJ CIASTKÓWBIELSKO-BIAŁAM3027M 6300:10:5600:26:08.8500:26:08.85+00:10:0915:223.9
73MARTYNEK Vladislav 2101SKI MOSTYMOSTY U JABLUNKOVAM601M 6400:11:5400:26:14.4500:26:14.45+00:10:1415:253.9
74MAZUR Damian 2033SOCIOS SILESIARUDA ŚLĄSKAM3028M 6500:12:1200:26:16.8000:26:16.80+00:10:1715:273.9
75KUKUCZKA Dominik 2035TRAILRUN KUKUCZKAJAWORZYNKAM2015M 6600:10:4200:26:18.4500:26:18.45+00:10:1815:283.9
76STEFAŃCZUK Waldemar 2130UZDROWISKO USTROŃKATOWICEM4020M 6700:11:3000:26:19.3000:26:19.30+00:10:1915:283.9
77SOBOLA Grzegorz 2051RACIBÓRZM2016M 6800:11:3400:26:22.4500:26:22.45+00:10:2215:303.9
78ŁASKI Mateusz 2013LANCKORONAM2017M 6900:12:4600:27:05.7000:27:05.70+00:11:0515:553.8
79CHACHUŁA Ryszard 2030DYCZUŚ TEAMZDZIESZOWICEM4021M 7000:12:0900:27:30.6500:27:30.65+00:11:3016:103.7
80STEFANIAK Justyna 1006KB LUPUS OLEŚNICAOLEŚNICAK404K 1000:12:2800:27:33.7000:27:33.70+00:11:3316:123.7
81WÓJCICKI Kamil 2132RAJSPORT ACTIVE OPOLELISIĘCICEM2018M 7100:12:2100:28:02.7500:28:02.75+00:12:0216:293.6
82DWORNICKI Tomasz 2104RYBNICKA GRUPA BIEGOWA PĘDZIMY RAZEMRYBNIKM4022M 7200:12:4600:29:04.7500:29:04.75+00:13:0417:053.5
83MIKULSKI Michał 2138GREMI BOCHNIABOCHNIAM3029M 7300:12:5300:29:05.1500:29:05.15+00:13:0517:063.5
84CIEŚLAR Kasia 1018USTROŃK303K 1100:13:2200:29:18.6500:29:18.65+00:13:1817:143.5
85LORENS Magdalena 1023G.O.A.T. TEAM MICHAŁOWICEMICHAŁOWICEK204K 1200:12:5500:29:19.0000:29:19.00+00:13:1917:143.5
86SZNAJDER Joanna 1025G.O.A.T. TEAM MICHAŁOWICEMICHAŁOWICEK304K 1300:13:4900:29:20.0000:29:20.00+00:13:2017:153.5
87SOSNOWSKA Izabela 1021CZĘSTOCHOWAK205K 1400:14:1700:29:21.0000:29:21.00+00:13:2117:153.5
88PUCHAJDA Monika 1029OŚWIĘCIMK305K 1500:14:1800:29:22.0000:29:22.00+00:13:2217:163.5
89LITWINOWICZ Karo 1030BEDZINK306K 1600:16:1200:29:23.0000:29:23.00+00:13:2317:173.5
90ZIELIŃSKA Ewelina 1034ZABRZEK206K 1700:16:1200:29:25.0000:29:25.00+00:13:2517:183.5
91DOLNY Tomasz 2154M4023M 7400:14:2900:35:58.4500:35:58.45+00:19:5821:092.8
92MAZUREK Roman 2084SPARTANIE DZIECIOMMURÓWM4024M 7500:11:3300:24:18.5500:24:18.55+00:08:1814:174.2
93RYCERSKI Rafał 2156CZAPLINEKM3030M 7600:10:5700:24:29.0500:24:29.05+00:08:2914:244.2
94NAGIEL Andrzej 2053ZABIEGANI CZĘSTOCHOWACZĘSTOCHOWAM4025M 7700:11:2900:24:40.0000:24:40.00+00:08:4014:304.1
95MAŁKOWSKI Bogdan 2025SPARTANIE DZIECIOMMURÓWM504M 7800:11:2300:24:50.9500:24:50.95+00:08:5114:364.1
96KADŁUBEK Aleksander 2047TKTJ/OSP REPTY ŚLĄSKIETARNOWSKIE GÓRYM3031M 7900:11:4500:25:05.8000:25:05.80+00:09:0614:454.1
97GLOS Janusz 2137MIĘDZYŚWIEĆM3032M 8000:11:2900:25:08.2500:25:08.25+00:09:0814:474.1
98BEDNARZ Sebastian 2037OTM.BOTMUCHÓWM4026M 8100:11:2500:25:12.4000:25:12.40+00:09:1214:494
99SWOBODA Tomasz 2067KURŁA KAJ TA META?!SZYMISZÓWM3033M 8200:11:0900:25:21.9500:25:21.95+00:09:2214:544
100RYBIŃSKI Łukasz 2065EŁKA TEAMRUDA ŚLĄSKAM3034M 8300:11:1800:25:27.3500:25:27.35+00:09:2714:584
101MAZUREK Piotr 2116MCKIS JAWORZNOJAWORZNOM3035M 8400:12:0700:25:31.0000:25:31.00+00:09:3115:004
102GAZDA Mariusz 2074KROSNOKROSNOM4027M 8500:11:5100:25:34.0500:25:34.05+00:09:3415:024
103GREGORCZYK Marcin 2075STS BIEGATON MIKOŁÓWMIKOŁÓWM4028M 8600:11:2200:25:44.9500:25:44.95+00:09:4515:084
104DANIKIEWICZ Michał 2114ROZBIEGAMY TO MIASTO - CZECHOWICE-DZIEDZICECZECHOWICE-DZIEDZICEM3036M 8700:11:4100:25:46.7500:25:46.75+00:09:4615:094
105ORŁOWSKI Łukasz 2106GOŁCZA TEAMGOŁCZAM4029M 8800:12:3300:26:12.1000:26:12.10+00:10:1215:243.9
106WILK Tomasz 2029MOMNATOCAŁEŻYCIEMIKOŁÓWM4030M 8900:12:1200:26:17.6500:26:17.65+00:10:1715:273.9
107ZAJDEL Michał 2059SOCIOS SILESIARUDA ŚLĄSKAM4031M 9000:12:0900:26:17.8500:26:17.85+00:10:1815:273.9
108KURYŁO Zenon 2036SBD ENERGETYK RYBNIKRYBNIKM505M 9100:12:2200:26:21.7500:26:21.75+00:10:2115:303.9
109KOWAL Łukasz 2139FITNESS EXPRESS RYBNIKRYBNIKM2019M 9200:12:0600:26:27.8500:26:27.85+00:10:2815:333.9
110POTOCZNY Mirosław 2073JAWORZNOM4032M 9300:12:4500:26:34.3000:26:34.30+00:10:3415:373.8
111SZNAJDER Rafał 2097G.O.A.T. TEAM MICHAŁOWICEMICHAŁOWICEM4033M 9400:12:0800:27:36.5000:27:36.50+00:11:3616:143.7
112POJDA Grzegorz 2120RYBNICKA GRUPA BIEGOWA PĘDZIMY RAZEMRYBNIKM4034M 9500:12:4300:27:45.0500:27:45.05+00:11:4516:193.7
113BAC Żaneta 1037PYSKOWICEK307K 1800:13:0200:28:48.3000:28:48.30+00:12:4816:563.5
114WOJNO Małgorzata 1020DROGA DO ULTRAŁÓDŹK308K 1900:13:2300:28:59.0000:28:59.00+00:12:5917:023.5
115PIDANTY Łukasz 2023JASTRZĘBIE ZDRÓJM3037M 9600:12:5900:29:03.2500:29:03.25+00:13:0317:053.5
116GÓRECKA Iwona 1026SZCZERBICEK405K 2000:13:1600:29:18.1500:29:18.15+00:13:1817:143.5
117DZIEGUĆ Piotr 2087CZECHOWICE-DZIEDZICEM3038M 9700:14:0300:29:30.8000:29:30.80+00:13:3117:213.5
118GUZDEK Tomasz 2039PSP BYTOMBYTOMM3039M 9800:11:5400:29:43.3000:29:43.30+00:13:4317:283.4
119MIKULSKA Barbara 1031GREMI BOCHNIANOWY WIŚNICZK406K 2100:13:4900:30:16.7500:30:16.75+00:14:1617:483.4
120HELLER Szymon 2103BRENNAM3040M 9900:14:2500:30:17.6500:30:17.65+00:14:1717:483.4
121MALINOWSKI Adrian 2027#CZELADZBIEGABĘDZINM4035M 10000:12:4200:30:30.5000:30:30.50+00:14:3017:563.3
122MATUSIAK Dawid 2040RYBNIKM3041M 10100:13:1300:30:30.8000:30:30.80+00:14:3117:563.3
123RYBCZYŃSKI Jarosław 2133DZIKIE ŻYCIE RUN TEAMSIEMIANOWICE ŚLĄSKIEM4036M 10200:14:0600:30:58.0000:30:58.00+00:14:5818:123.3
124LISOWSKA Kamila 1016LEŚNE RUN / NIGHT RUNNERS ZABRZEZABRZEK309K 2200:14:1400:31:05.5500:31:05.55+00:15:0518:173.3
125MĄDRZYK Daniel 2017IB TEAMSOSNOWIECM3042M 10300:15:1000:32:53.0000:32:53.00+00:16:5319:203.1
126ROGOSZ Marcin 2045SOCIOS SILESIARUDA ŚLĄSKAM4037M 10400:15:2000:33:33.8000:33:33.80+00:17:3419:443
127NORAS Alina 1010PWC SDC RUNNERS TEAMIMIELINK3010K 2300:15:4300:33:51.7500:33:51.75+00:17:5119:543
128MĄCZKA Krystyna 1036EKSTREMALNE OTK NA RELAKSIEGLIWICEK601K 2400:16:4800:35:30.6000:35:30.60+00:19:3020:522.9
SUDNIK Krzysztof 2077KNURÓWM3000:09:56 DNF DNF DNF--
130CHYBIORZ Marek 2046CIESZYNM3044M 10600:08:4200:20:07.6500:20:07.65+00:04:0711:505.1
131SKÓRA Marcin 2160M3045M 10700:09:1600:21:26.3500:21:26.35+00:05:2612:364.8
132KURYŁO Paweł 2058AUGUSTÓWM4038M 10800:09:5100:23:05.4000:23:05.40+00:07:0513:344.4
133CYMERLIK Krzysztof 2110ŻORYM506M 10900:10:0800:23:07.5000:23:07.50+00:07:0713:354.4
134CABOS Dominik 2122ZAWOJAM4039M 11000:10:2800:25:22.6000:25:22.60+00:09:2214:554
135CIOĆ Robert 2145ZABRZEM4040M 11100:11:3000:25:24.5000:25:24.50+00:09:2414:564
136BERTINO Francesco 2076CAZZO CLUB RUNNING TEAMWARSZAWAM2020M 11200:10:5700:26:06.1500:26:06.15+00:10:0615:213.9
137GOLKOWSKI Marcel 2108OSP REPTY ŚLĄSKIETARNOWSKIE GÓRYM2021M 11300:11:2400:26:07.2000:26:07.20+00:10:0715:213.9
138KRUK Krzysztof 2072STREFABYKÓW BYTOMZABRZEM4041M 11400:12:0100:26:16.8000:26:16.80+00:10:1715:273.9
139WAWROCKI Jarosław 2155ZABRZEM4042M 11500:11:5200:26:31.3500:26:31.35+00:10:3115:353.8
140PRYSZCZ Mirosław 2048RUDA ŚLĄSKAM4043M 11600:11:4400:26:44.8500:26:44.85+00:10:4515:433.8
141HOMBEK Maciej 2125UZDROWISKOWY TEAMUSTROŃM507M 11700:12:2200:26:45.8000:26:45.80+00:10:4615:443.8
142STOLARCZYK Daniel 2095ZABIEGANY SKARYSZEWSKARYSZEWM4044M 11800:11:3900:26:54.0500:26:54.05+00:10:5415:493.8
143OŻGA Sebastian 2149TYCHYM3046M 11900:12:0600:26:56.0000:26:56.00+00:10:5615:503.8
144KOLANOWSKI Kacper 2107WKURW TEAMBRZESZCZEM2022M 12000:11:0700:27:06.2000:27:06.20+00:11:0615:563.8
145LEWANDOWSKI Mateusz 2100TYCHYM3047M 12100:11:2000:27:11.4500:27:11.45+00:11:1115:593.8
146DZIUBLA Bartłomiej 2015KAMIENIECM2023M 12200:11:3000:27:15.7000:27:15.70+00:11:1516:013.7
147MATUSZCZYK Maciej 2031CZPTYCHY.PLKATOWICEM4045M 12300:12:0000:27:19.0500:27:19.05+00:11:1916:043.7
148MALISZEWSKI Dariusz 2124JASTRZĘBIE ZDRÓJM3048M 12400:12:1700:27:23.9500:27:23.95+00:11:2416:063.7
149LEWANDOWSKI Szymon 2055PIĘKIN I BESTIETYCHYM2024M 12500:11:2700:27:34.7000:27:34.70+00:11:3416:123.7
150SCHMIDT Robert 2062ZABRZEM3049M 12600:11:5800:27:39.6500:27:39.65+00:11:3916:153.7
151SWOBODA Jarosław 2043NIGHT RUNNERS GLIWICEGLIWICEM4046M 12700:12:3100:27:41.0500:27:41.05+00:11:4116:173.7
152DŁUGOSZ Marek 2093CHORZÓWM3050M 12800:12:3300:27:47.5000:27:47.50+00:11:4716:203.7
153SZAREK Rafał 2119JAWORZNOM4047M 12900:11:4700:28:10.2500:28:10.25+00:12:1016:343.6
154DZIKI Marek 2118ROGOŹNIKM3051M 13000:12:5300:28:23.4000:28:23.40+00:12:2316:413.6
155PRÓBAN Robert 2099KATOWICEM3052M 13100:12:1800:28:46.0500:28:46.05+00:12:4616:553.5
156SZYNWELSKI Michał 2057LUBIĘ BURPEES'YKATOWICEM3053M 13200:11:5500:28:53.4500:28:53.45+00:12:5316:593.5
157GARBOŚ Cezary 2115ŻORYM508M 13300:12:4200:29:25.8500:29:25.85+00:13:2617:183.5
158ŻUREK Patryk 2078TWORKÓWM3054M 13400:12:2800:30:23.9000:30:23.90+00:14:2417:523.4
159KOPEĆ Martyna 1015TRUCHTACZ MYSŁOWICEMYSŁOWICEK207K 2500:13:2800:30:50.9500:30:50.95+00:14:5118:083.3
160KOPTA Jerzy 2112CWAŁUJĄCE DZIADKIKRAKÓWM602M 13500:14:3500:30:58.6500:30:58.65+00:14:5818:123.3
161GREŃ Dorota 1017USTROŃK3011K 2600:14:0700:31:16.7000:31:16.70+00:15:1618:233.3
162ŁOPUSIŃSKI Piotr 2152CAZZO CLUB RUNNING TEAMKRUKIM2025M 13600:13:0900:31:43.9500:31:43.95+00:15:4418:393.2
163SCHMIDT Izabela 1014ZABRZEK3012K 2700:13:5100:32:08.3500:32:08.35+00:16:0818:543.2
164TRYKA Sebastian 2127UZDROWISKOWY TEAMSKOCZÓWM3055M 13700:14:2400:32:45.7000:32:45.70+00:16:4519:153.1
165BALBUS Michał 2159MIECHOWICEBYTOMM603M 13800:14:3000:33:43.9500:33:43.95+00:17:4419:503
166KLIMOSZ Edyta 1038LECYMY DURŚISTEBNAK208K 2800:14:5100:34:32.2500:34:32.25+00:18:3220:183
167JAWOREK Dariusz 2157EKSTREMALNE OTK NA RELAKSIEGLIWICEM4048M 13900:14:4700:34:53.3000:34:53.30+00:18:5320:312.9
168LIK Michał 2068RYBNIKM3056M 14000:13:2500:35:35.5500:35:35.55+00:19:3520:552.9
169DULĘBA Bartosz 2140UZDROWISKO USTROŃ RUNING TEAMUSTROŃM3057M 14100:14:2700:35:54.3000:35:54.30+00:19:5421:072.8
170KUCZEK Grzegorz 2129KEIKOCZECHOWICE DZIEDZICEM4049M 14200:15:0400:37:11.2500:37:11.25+00:21:1121:522.7
171SUFIN Karolina 1009LUBIĘ BURPEES'YKATOWICEK3013K 2900:17:1200:41:35.8000:41:35.80+00:25:3624:272.5
172KLOSA Marta 1022KATOWICEK3014K 3000:17:0800:42:08.3500:42:08.35+00:26:0824:472.4
173KOZIJ-GULIŃSKA Barbara 1013KATOWICEK3015K 3100:17:0900:42:08.4500:42:08.45+00:26:0824:472.4
174FRELEK Katarzyna 1011PWC SDC RUNNERS TEAMKATOWICEK209K 3200:17:4500:44:31.6000:44:31.60+00:28:3126:112.3
175HERCKA Krzysztof 2028RYBNIKM3058M 14300:18:0900:45:19.2500:45:19.25+00:29:1926:392.3
LUŹNIAK Damian 2052SCI GÓRSCY ENTUZJAŚCIPOGWIZDÓWM3000:09:08 DNF DNF DNF--
Znaleziono 176 wynik(ów)